Time;durP1;ratioP1;P1;durP2;ratioP2;P2;SDS_P1;SDS_P2;PMS_P1;PMS_P2;Temp;Humidity;BMP_temperature;BMP_pressure;BME280_temperature;BME280_humidity;BME280_pressure;Samples;Min_cycle;Max_cycle;Signal;HPM_P1;HPM_P2
2022/04/29 00:00:01;;;;;;;2.67;1.50;;;;;;;11.99;52.23;99819.97;5054308;28;20041;-55
2022/04/29 00:03:02;;;;;;;2.80;1.20;;;;;;;11.70;51.06;99821.56;5054309;28;20049;-53
2022/04/29 00:05:47;;;;;;;2.15;0.93;;;;;;;11.56;47.32;99819.72;5053514;28;20094;-53
2022/04/29 00:08:32;;;;;;;3.92;1.00;;;;;;;11.46;46.79;99818.53;5054129;28;20120;-53
2022/04/29 00:11:17;;;;;;;1.67;0.73;;;;;;;11.07;47.22;99816.25;5039017;28;20071;-55
2022/04/29 00:14:01;;;;;;;1.60;1.00;;;;;;;11.31;52.99;99822.88;5053081;28;20040;-54
2022/04/29 00:16:47;;;;;;;1.90;1.10;;;;;;;11.53;51.53;99817.25;5053387;28;20048;-53
2022/04/29 00:19:33;;;;;;;4.18;1.05;;;;;;;11.54;44.87;99818.09;5054011;28;20048;-53
2022/04/29 00:22:17;;;;;;;1.95;1.10;;;;;;;11.66;49.83;99820.03;5054032;28;20104;-56
2022/04/29 00:25:02;;;;;;;1.42;0.93;;;;;;;11.83;47.79;99819.06;5052805;28;20041;-54
2022/04/29 00:27:47;;;;;;;2.67;0.90;;;;;;;11.61;44.46;99816.81;5046716;28;20038;-59
2022/04/29 00:30:33;;;;;;;1.60;1.00;;;;;;;11.32;42.91;99819.31;5047546;28;20064;-54
2022/04/29 00:33:18;;;;;;;2.67;1.08;;;;;;;11.32;51.54;99811.44;5034436;28;20052;-53
2022/04/29 00:36:03;;;;;;;2.10;1.10;;;;;;;11.63;48.40;99809.72;5046928;28;20045;-55
2022/04/29 00:38:48;;;;;;;3.42;1.23;;;;;;;11.77;50.57;99816.81;5032631;28;20449;-53
2022/04/29 00:41:32;;;;;;;1.75;1.00;;;;;;;11.88;51.03;99810.94;5045572;28;20045;-53
2022/04/29 00:44:17;;;;;;;1.92;1.10;;;;;;;12.17;51.50;99818.09;5053716;28;20049;-52
2022/04/29 00:47:03;;;;;;;1.75;1.10;;;;;;;12.12;48.12;99801.75;5047428;28;20048;-54
2022/04/29 00:49:49;;;;;;;1.83;0.80;;;;;;;12.01;51.42;99808.44;5052337;28;20044;-52
2022/04/29 00:52:37;;;;;;;1.38;1.00;;;;;;;12.17;51.63;99812.84;5052445;28;20079;-53
2022/04/29 00:55:23;;;;;;;1.60;1.00;;;;;;;12.10;49.80;99807.09;5038529;28;20051;-57
2022/04/29 00:58:17;;;;;;;2.25;1.00;;;;;;;11.94;50.44;99807.97;5052943;28;20048;-54
2022/04/29 01:01:03;;;;;;;2.03;1.05;;;;;;;12.01;52.26;99803.19;5053653;28;20033;-55
2022/04/29 01:03:49;;;;;;;3.75;1.20;;;;;;;11.94;50.39;99805.34;5051791;28;20488;-53
2022/04/29 01:06:34;;;;;;;2.22;1.02;;;;;;;11.36;50.55;99810.31;5052870;28;20048;-58
2022/04/29 01:09:18;;;;;;;2.28;1.67;;;;;;;10.86;52.63;99805.13;5052743;28;20044;-55
2022/04/29 01:12:04;;;;;;;2.88;1.73;;;;;;;10.25;55.57;99802.94;5054187;28;20402;-55
2022/04/29 01:14:49;;;;;;;2.97;1.73;;;;;;;10.09;59.63;99798.50;5066763;28;20091;-53
2022/04/29 01:17:38;;;;;;;3.55;2.00;;;;;;;10.44;57.50;99808.13;5052425;28;20079;-53
2022/04/29 01:20:31;;;;;;;2.55;1.60;;;;;;;10.74;58.33;99801.38;5052897;28;20047;-56
2022/04/29 01:23:16;;;;;;;2.05;1.55;;;;;;;10.84;58.02;99797.34;5051731;28;20041;-55
2022/04/29 01:26:01;;;;;;;3.63;2.25;;;;;;;10.98;56.00;99798.38;5053451;28;20114;-53
2022/04/29 01:28:47;;;;;;;3.22;1.98;;;;;;;10.96;57.57;99803.72;5052065;28;20547;-52
2022/04/29 01:31:33;;;;;;;5.10;2.50;;;;;;;10.65;55.89;99799.25;5052332;28;20064;-52
2022/04/29 01:34:19;;;;;;;3.30;2.28;;;;;;;10.76;61.52;99803.91;5053322;28;20044;-51
2022/04/29 01:37:04;;;;;;;3.13;2.40;;;;;;;10.66;61.27;99807.00;5051020;28;20079;-56
2022/04/29 01:39:49;;;;;;;4.80;2.30;;;;;;;10.37;60.34;99795.38;5037644;28;20040;-54
2022/04/29 01:42:34;;;;;;;7.88;2.97;;;;;;;10.16;59.89;99803.41;5051208;28;20080;-54
2022/04/29 01:45:19;;;;;;;4.00;2.28;;;;;;;10.21;62.26;99789.19;5051893;28;20494;-53
2022/04/29 01:48:18;;;;;;;4.07;2.22;;;;;;;10.52;61.58;99784.16;5040080;28;20041;-53
2022/04/29 01:51:08;;;;;;;3.30;2.20;;;;;;;10.74;60.36;99782.19;5038671;28;20045;-55
2022/04/29 01:53:53;;;;;;;4.80;2.08;;;;;;;10.63;59.08;99790.59;5051837;28;20076;-53
2022/04/29 01:56:39;;;;;;;3.88;2.40;;;;;;;10.65;56.89;99792.22;5051415;28;20037;-53
2022/04/29 01:59:29;;;;;;;5.10;2.70;;;;;;;10.38;60.56;99784.84;5051294;28;20048;-52
2022/04/29 02:02:27;;;;;;;3.67;2.38;;;;;;;10.37;61.08;99792.78;5050132;28;20045;-55
2022/04/29 02:05:11;;;;;;;3.80;2.40;;;;;;;10.05;61.49;99793.50;5051160;28;20057;-53
2022/04/29 02:08:00;;;;;;;4.72;2.83;;;;;;;10.48;61.56;99787.84;5065319;28;20037;-53
2022/04/29 02:10:46;;;;;;;4.47;2.60;;;;;;;10.58;59.18;99788.22;5065416;28;20115;-54
2022/04/29 02:13:36;;;;;;;5.70;2.95;;;;;;;9.64;58.17;99795.47;5037751;28;20041;-55
2022/04/29 02:16:46;;;;;;;7.28;3.40;;;;;;;9.43;60.41;99799.94;5052041;28;20488;-55
2022/04/29 02:19:31;;;;;;;5.43;3.60;;;;;;;9.66;60.14;99790.16;5051167;28;20029;-54
2022/04/29 02:22:16;;;;;;;7.15;3.30;;;;;;;9.73;61.11;99792.38;5051102;28;20116;-55
2022/04/29 02:25:02;;;;;;;5.00;3.25;;;;;;;10.03;61.58;99788.34;5037090;28;20044;-54
2022/04/29 02:27:47;;;;;;;3.65;2.55;;;;;;;10.06;62.74;99782.09;5037165;28;20037;-57
2022/04/29 02:30:33;;;;;;;4.72;2.60;;;;;;;9.91;60.12;99783.69;5009721;28;20040;-53
2022/04/29 02:33:17;;;;;;;5.38;3.65;;;;;;;9.59;61.73;99789.59;5079791;28;20075;-54
2022/04/29 02:36:05;;;;;;;4.20;3.00;;;;;;;9.58;60.90;99780.06;5051812;28;20072;-52
2022/04/29 02:38:50;;;;;;;5.55;3.30;;;;;;;9.84;62.22;99772.72;5051120;28;20037;-54
2022/04/29 02:41:36;;;;;;;5.35;2.63;;;;;;;9.84;62.63;99772.72;5052422;28;20053;-53
2022/04/29 02:44:22;;;;;;;4.35;2.38;;;;;;;9.98;63.24;99775.47;5051758;28;20053;-53
2022/04/29 02:47:07;;;;;;;4.50;2.85;;;;;;;9.94;61.23;99776.53;5064559;28;20060;-54
2022/04/29 02:49:53;;;;;;;6.20;3.00;;;;;;;9.68;62.23;99777.81;5055308;28;20116;-54
2022/04/29 02:52:38;;;;;;;3.83;2.78;;;;;;;9.90;61.97;99782.00;5054812;28;20037;-55
2022/04/29 02:55:23;;;;;;;4.47;2.47;;;;;;;9.85;59.92;99782.25;5054372;28;20453;-55
2022/04/29 02:58:12;;;;;;;4.90;2.55;;;;;;;10.09;61.14;99781.94;5054212;28;20037;-54
2022/04/29 03:00:57;;;;;;;4.72;3.00;;;;;;;10.27;59.00;99774.06;5082897;28;20060;-52
2022/04/29 03:03:42;;;;;;;4.20;2.50;;;;;;;10.10;61.25;99775.78;5054429;28;20053;-54
2022/04/29 03:06:27;;;;;;;4.93;2.40;;;;;;;10.44;61.65;99766.22;5068654;28;20048;-53
2022/04/29 03:09:12;;;;;;;4.55;2.60;;;;;;;10.25;61.56;99773.31;5054442;28;20049;-52
2022/04/29 03:11:57;;;;;;;5.50;2.42;;;;;;;10.08;61.92;99772.41;5054358;28;20033;-55
2022/04/29 03:14:43;;;;;;;4.40;2.22;;;;;;;10.26;62.39;99767.13;5068071;28;20056;-55
2022/04/29 03:20:37;;;;;;;6.90;2.58;;;;;;;10.74;60.91;99769.91;5054935;28;20033;-54
2022/04/29 03:23:23;;;;;;;3.28;2.10;;;;;;;10.78;59.66;99776.69;5039880;28;20195;-56
2022/04/29 03:26:11;;;;;;;3.00;2.10;;;;;;;10.93;59.11;99774.19;5054819;28;20047;-54
2022/04/29 03:28:55;;;;;;;6.78;2.50;;;;;;;10.64;58.80;99774.78;5067972;28;20442;-54
2022/04/29 03:31:41;;;;;;;4.72;2.42;;;;;;;10.69;52.24;99779.81;5067935;28;20044;-53
2022/04/29 03:34:52;;;;;;;2.50;1.73;;;;;;;10.89;58.72;99778.75;5067588;28;20067;-55
2022/04/29 03:37:37;;;;;;;7.05;2.97;;;;;;;10.72;56.14;99780.47;5067604;28;20464;-55
2022/04/29 03:40:24;;;;;;;5.28;2.10;;;;;;;10.49;59.00;99781.72;5053649;28;20059;-54
2022/04/29 03:43:12;;;;;;;6.40;2.17;;;;;;;10.24;58.25;99785.56;5053458;28;20103;-53
2022/04/29 03:45:57;;;;;;;4.38;2.42;;;;;;;10.06;57.68;99777.72;5053402;28;20391;-55
2022/04/29 03:52:08;;;;;;;3.22;2.15;;;;;;;10.18;59.54;99788.50;5067386;28;20037;-55
2022/04/29 03:54:54;;;;;;;4.85;2.40;;;;;;;10.45;59.79;99786.22;5053533;28;20041;-54
2022/04/29 03:57:41;;;;;;;3.63;2.40;;;;;;;10.76;58.60;99785.56;5039171;28;20051;-55
2022/04/29 04:00:31;;;;;;;4.72;2.45;;;;;;;11.14;57.38;99787.91;5052260;28;20041;-56
2022/04/29 04:03:15;;;;;;;3.45;2.08;;;;;;;10.62;59.56;99787.16;5067154;28;20049;-54
2022/04/29 04:09:04;;;;;;;4.60;2.95;;;;;;;10.38;57.42;99799.72;5058552;28;20068;-52
2022/04/29 04:11:49;;;;;;;5.40;3.00;;;;;;;10.26;58.48;99785.47;5062582;28;20037;-54
2022/04/29 04:14:49;;;;;;;4.80;2.92;;;;;;;10.23;58.22;99792.56;5041425;28;20048;-53
2022/04/29 04:17:34;;;;;;;4.45;2.85;;;;;;;10.05;57.94;99794.34;5052997;28;20045;-51
2022/04/29 04:20:20;;;;;;;4.18;2.47;;;;;;;10.01;58.06;99797.16;5053917;28;20440;-54
2022/04/29 04:23:20;;;;;;;3.33;2.20;;;;;;;9.71;60.45;99799.47;5067449;28;20460;-55
2022/04/29 04:26:05;;;;;;;5.72;2.88;;;;;;;10.05;60.47;99790.88;5052882;28;20041;-55
2022/04/29 04:28:50;;;;;;;3.70;2.45;;;;;;;10.42;57.46;99793.38;5038851;28;20041;-55
2022/04/29 04:31:35;;;;;;;5.90;2.80;;;;;;;10.36;58.17;99802.44;5066448;28;20112;-54
2022/04/29 04:37:25;;;;;;;4.75;2.85;;;;;;;10.64;59.26;99794.94;5041006;28;20052;-53
2022/04/29 04:40:17;;;;;;;6.93;3.03;;;;;;;10.38;58.13;99799.72;5052362;28;20095;-54
2022/04/29 04:43:07;;;;;;;3.58;2.53;;;;;;;10.42;59.47;99802.09;5052176;28;20095;-55
2022/04/29 04:45:52;;;;;;;4.10;2.40;;;;;;;10.71;57.93;99809.38;5060631;28;20490;-54
2022/04/29 04:49:00;;;;;;;4.78;2.90;;;;;;;10.48;57.29;99814.06;5021327;28;20061;-54
2022/04/29 04:52:14;;;;;;;5.30;2.50;;;;;;;10.34;58.82;99823.47;5031868;28;20459;-56
2022/04/29 04:55:06;;;;;;;6.20;3.17;;;;;;;10.28;59.04;99821.13;5052691;28;20478;-53
2022/04/29 04:57:53;;;;;;;5.15;3.22;;;;;;;10.47;57.98;99821.09;5038470;28;20037;-53
2022/04/29 05:00:39;;;;;;;5.50;2.38;;;;;;;10.71;58.45;99817.25;5080250;28;20072;-54
2022/04/29 05:03:43;;;;;;;8.05;3.20;;;;;;;10.86;56.75;99825.22;5053319;28;20129;-53
2022/04/29 05:06:47;;;;;;;7.57;3.08;;;;;;;10.92;56.68;99828.38;5052583;28;20048;-55
2022/04/29 05:09:33;;;;;;;6.40;4.13;;;;;;;10.41;55.19;99834.44;5080229;28;20091;-54
2022/04/29 05:12:17;;;;;;;6.25;3.72;;;;;;;10.38;60.22;99831.16;5051511;28;20494;-53
2022/04/29 05:15:08;;;;;;;6.78;4.15;;;;;;;10.21;57.70;99832.84;5051514;28;20033;-58
2022/04/29 05:17:54;;;;;;;5.32;3.28;;;;;;;9.64;61.70;99837.31;5079915;28;20045;-58
2022/04/29 05:20:52;;;;;;;6.32;2.75;;;;;;;10.27;62.96;99829.06;5053522;28;20460;-52
2022/04/29 05:23:38;;;;;;;8.48;3.75;;;;;;;10.82;60.50;99835.06;5065402;28;20033;-56
2022/04/29 05:26:46;;;;;;;7.78;3.00;;;;;;;11.45;59.16;99835.22;5038147;28;20052;-55
2022/04/29 05:29:49;;;;;;;5.60;3.08;;;;;;;11.67;58.88;99834.03;5052648;28;20045;-57
2022/04/29 05:32:53;;;;;;;6.88;2.28;;;;;;;11.50;58.79;99829.69;5051732;28;20384;-55
2022/04/29 05:35:56;;;;;;;6.78;3.17;;;;;;;12.07;54.19;99838.78;5052448;28;20091;-54
2022/04/29 05:42:22;;;;;;;5.20;3.30;;;;;;;11.46;50.94;99839.50;5065656;28;20044;-57
2022/04/29 05:45:08;;;;;;;9.10;3.50;;;;;;;10.97;51.64;99841.25;5076191;28;20033;-58
2022/04/29 05:47:54;;;;;;;6.35;3.00;;;;;;;11.17;51.54;99842.81;5079072;28;20061;-56
2022/04/29 05:50:40;;;;;;;6.35;3.75;;;;;;;11.32;51.80;99842.91;5033851;28;20041;-57
2022/04/29 05:53:24;;;;;;;6.35;3.80;;;;;;;11.54;52.11;99854.84;5049201;28;20032;-59
2022/04/29 05:56:19;;;;;;;10.10;3.90;;;;;;;11.74;51.57;99852.88;5051995;28;20102;-60
2022/04/29 05:59:04;;;;;;;5.75;3.00;;;;;;;11.38;50.19;99853.06;5037184;28;20041;-58
2022/04/29 06:02:08;;;;;;;8.20;3.35;;;;;;;11.11;52.06;99853.63;5074730;28;20076;-60
2022/04/29 06:05:04;;;;;;;7.07;3.40;;;;;;;11.35;51.65;99855.84;5079724;28;20071;-62
2022/04/29 06:07:50;;;;;;;7.35;3.50;;;;;;;11.45;50.84;99858.81;5083731;28;20060;-59
2022/04/29 06:10:40;;;;;;;5.75;3.58;;;;;;;11.70;51.17;99858.31;5051666;28;20039;-61
2022/04/29 06:13:25;;;;;;;8.55;3.67;;;;;;;11.61;50.01;99864.06;5046352;28;20542;-61
2022/04/29 06:16:33;;;;;;;5.90;3.00;;;;;;;11.70;49.90;99867.97;5034244;28;20559;-58
2022/04/29 06:19:47;;;;;;;4.90;3.15;;;;;;;11.99;48.80;99862.84;5054622;28;20476;-61
2022/04/29 06:23:07;;;;;;;6.43;3.60;;;;;;;12.09;48.32;99863.22;5054736;28;20041;-61
2022/04/29 06:25:53;;;;;;;8.00;2.92;;;;;;;12.09;48.05;99860.59;5087258;28;20369;-59
2022/04/29 06:28:38;;;;;;;5.57;3.75;;;;;;;12.52;47.37;99856.34;5055759;28;20037;-60
2022/04/29 06:31:24;;;;;;;4.65;2.83;;;;;;;13.05;47.06;99858.47;5081081;28;20082;-59
2022/04/29 06:34:49;;;;;;;6.60;2.92;;;;;;;13.26;46.51;99858.94;5022394;28;20042;-58
2022/04/29 06:37:35;;;;;;;7.38;3.83;;;;;;;13.43;45.96;99863.13;4999201;28;20042;-56
2022/04/29 06:40:42;;;;;;;6.80;4.18;;;;;;;12.84;49.18;99868.53;5032008;28;20428;-57
2022/04/29 06:43:29;;;;;;;8.15;3.70;;;;;;;13.28;49.83;99874.63;5069145;28;20040;-49
2022/04/29 06:46:44;;;;;;;8.70;4.75;;;;;;;13.14;48.91;99864.94;5029359;28;20049;-53
2022/04/29 06:49:48;;;;;;;6.10;4.22;;;;;;;14.32;46.57;99868.94;5056553;28;20067;-55
2022/04/29 06:52:51;;;;;;;9.43;4.15;;;;;;;15.07;48.29;99867.41;5056155;28;20052;-53
2022/04/29 06:55:40;;;;;;;8.00;4.45;;;;;;;14.00;47.61;99876.22;5054812;28;20412;-57
2022/04/29 06:58:26;;;;;;;7.30;4.32;;;;;;;13.68;47.29;99879.16;5054953;28;20037;-53
2022/04/29 07:01:12;;;;;;;6.25;4.18;;;;;;;14.45;48.31;99876.88;5055539;28;20041;-54
2022/04/29 07:03:56;;;;;;;7.97;4.65;;;;;;;15.03;46.11;99874.69;5040859;28;20037;-54
2022/04/29 07:06:42;;;;;;;8.75;4.90;;;;;;;13.81;48.92;99876.59;5068209;28;20037;-55
2022/04/29 07:09:28;;;;;;;8.07;4.70;;;;;;;14.07;48.39;99884.59;5054660;28;20049;-52
2022/04/29 07:12:41;;;;;;;11.38;4.53;;;;;;;14.18;48.08;99883.91;5041113;28;20053;-52
2022/04/29 07:15:26;;;;;;;7.83;4.90;;;;;;;15.03;46.30;99879.16;5053978;28;20052;-54
2022/04/29 07:18:16;;;;;;;9.32;4.65;;;;;;;14.80;47.43;99884.22;5054637;28;20487;-52
2022/04/29 07:21:03;;;;;;;8.40;5.18;;;;;;;16.12;44.95;99881.16;5053798;28;20456;-55
2022/04/29 07:23:48;;;;;;;9.13;4.57;;;;;;;16.31;44.24;99882.41;5054122;28;20045;-54
2022/04/29 07:26:32;;;;;;;7.18;4.50;;;;;;;16.95;42.57;99872.31;5067976;28;20426;-54
2022/04/29 07:29:17;;;;;;;7.90;4.28;;;;;;;17.79;40.82;99881.63;5053679;28;20080;-53
2022/04/29 07:32:08;;;;;;;8.98;4.60;;;;;;;18.10;39.43;99870.31;5040649;28;20128;-53
2022/04/29 07:41:46;;;;;;;6.00;3.88;;;;;;;18.69;39.48;99869.91;5067439;28;20040;-52
2022/04/29 07:44:34;;;;;;;8.63;4.55;;;;;;;18.09;40.17;99873.94;5082140;28;20051;-53
2022/04/29 07:47:20;;;;;;;8.35;3.88;;;;;;;18.82;37.75;99865.22;5067642;28;20052;-55
2022/04/29 07:50:14;;;;;;;12.85;4.35;;;;;;;18.59;38.39;99870.69;5053295;28;20037;-54
2022/04/29 07:53:01;;;;;;;10.30;4.20;;;;;;;18.64;39.02;99864.16;5067197;28;20033;-54
2022/04/29 07:55:46;;;;;;;9.25;4.35;;;;;;;19.22;37.55;99872.53;5039270;28;20052;-50
2022/04/29 07:58:32;;;;;;;9.25;4.57;;;;;;;18.38;38.81;99872.53;5081174;28;20464;-54
2022/04/29 08:01:17;;;;;;;7.78;4.60;;;;;;;17.32;39.63;99869.44;5053665;28;20144;-55
2022/04/29 08:04:04;;;;;;;6.22;4.00;;;;;;;16.82;41.27;99869.78;5024904;28;20044;-54
2022/04/29 08:06:49;;;;;;;7.43;4.20;;;;;;;18.64;38.12;99866.81;5052610;28;20055;-54
2022/04/29 08:09:34;;;;;;;5.78;3.13;;;;;;;18.67;37.03;99855.94;5052593;28;20037;-53
2022/04/29 08:12:19;;;;;;;11.45;4.30;;;;;;;18.53;35.08;99860.59;5066599;28;20075;-52
2022/04/29 08:15:25;;;;;;;6.82;3.08;;;;;;;17.68;37.23;99860.47;5052738;28;20045;-56
2022/04/29 08:18:19;;;;;;;6.55;2.85;;;;;;;17.93;36.81;99864.63;5081234;28;20086;-53
2022/04/29 08:21:04;;;;;;;5.97;3.28;;;;;;;17.88;36.91;99864.16;5066709;28;20050;-54
2022/04/29 08:23:49;;;;;;;9.38;3.17;;;;;;;19.04;34.89;99851.91;5053345;28;20369;-53
2022/04/29 08:26:34;;;;;;;5.68;3.00;;;;;;;19.95;34.32;99860.78;5054821;28;20060;-56
2022/04/29 08:29:20;;;;;;;7.28;3.22;;;;;;;20.02;33.55;99851.28;5067489;28;20040;-54
2022/04/29 08:32:05;;;;;;;7.10;2.90;;;;;;;18.58;36.65;99845.13;5053356;28;20067;-53
2022/04/29 08:34:53;;;;;;;7.07;3.00;;;;;;;18.18;36.20;99859.13;5065980;28;20045;-54
2022/04/29 08:37:41;;;;;;;5.13;2.67;;;;;;;18.12;37.05;99849.84;5066233;28;20383;-52
2022/04/29 08:40:27;;;;;;;5.72;3.08;;;;;;;19.32;34.33;99845.03;5053146;28;20051;-54
2022/04/29 08:43:14;;;;;;;6.82;2.60;;;;;;;19.88;33.28;99843.72;5080741;28;20044;-55
2022/04/29 08:46:01;;;;;;;7.65;2.85;;;;;;;19.98;31.57;99847.19;5053342;28;20647;-54
2022/04/29 08:48:50;;;;;;;6.18;2.85;;;;;;;19.95;31.90;99836.84;5039748;28;20037;-55
2022/04/29 08:51:38;;;;;;;5.90;2.65;;;;;;;20.08;32.13;99838.41;5052341;28;20111;-52
2022/04/29 09:00:42;;;;;;;4.78;2.75;;;;;;;21.21;29.24;99821.69;5053041;28;20373;-53
2022/04/29 09:03:26;;;;;;;4.30;2.22;;;;;;;21.64;27.29;99808.63;5053468;28;20202;-56
2022/04/29 09:06:14;;;;;;;4.35;2.00;;;;;;;20.76;29.05;99813.47;5065867;28;20036;-54
2022/04/29 09:09:09;;;;;;;5.32;1.98;;;;;;;19.54;30.85;99813.03;5066134;28;20033;-54
2022/04/29 09:12:14;;;;;;;3.05;2.00;;;;;;;18.83;30.65;99818.28;5053166;28;20048;-52
2022/04/29 09:15:14;;;;;;;3.53;2.05;;;;;;;18.79;30.21;99815.06;5053157;28;20502;-55
2022/04/29 09:17:59;;;;;;;;;;;;;;;20.49;28.80;99809.78;5053165;28;20094;-55
2022/04/29 09:20:52;;;;;;;5.15;2.00;;;;;;;20.76;27.76;99807.31;5051886;28;19923;-56
2022/04/29 09:23:44;;;;;;;4.40;2.35;;;;;;;20.91;28.00;99807.66;5054439;28;20037;-54
2022/04/29 09:26:48;;;;;;;4.05;2.20;;;;;;;20.90;26.75;99808.63;5053574;28;20037;-57
2022/04/29 09:29:57;;;;;;;2.95;1.98;;;;;;;21.25;27.15;99807.06;5053513;28;20102;-54
2022/04/29 09:32:51;;;;;;;3.78;2.00;;;;;;;21.93;26.85;99801.41;5052064;28;20044;-54
2022/04/29 09:35:58;;;;;;;4.20;2.30;;;;;;;22.02;26.47;99800.47;5052186;28;20110;-54
2022/04/29 09:41:55;;;;;;;;;;;;;;;;;;5065901;28;20086;-54
2022/04/29 09:44:39;;;;;;;5.75;1.98;;;;;;;23.40;25.45;99796.34;5065509;28;19964;-54
2022/04/29 09:47:24;;;;;;;3.63;2.30;;;;;;;21.32;26.36;99785.16;5052335;28;20037;-53
2022/04/29 09:50:09;;;;;;;5.90;3.03;;;;;;;20.64;27.92;99788.00;5052155;28;20041;-55
2022/04/29 09:52:54;;;;;;;3.67;2.05;;;;;;;21.23;27.91;99781.59;5079794;28;20037;-55
2022/04/29 09:55:38;;;;;;;4.25;2.28;;;;;;;20.50;28.70;99795.47;5052431;28;20036;-55
2022/04/29 09:58:23;;;;;;;5.35;2.35;;;;;;;21.12;27.26;99780.78;5055463;28;20494;-53
2022/04/29 10:01:09;;;;;;;4.90;2.22;;;;;;;22.38;26.31;99775.53;5069876;28;20357;-56
2022/04/29 10:03:56;;;;;;;3.58;2.10;;;;;;;21.21;27.82;99786.22;5055590;28;20384;-54
2022/04/29 10:06:41;;;;;;;3.83;2.10;;;;;;;22.67;26.52;99772.72;5055193;28;20043;-54
2022/04/29 10:09:32;;;;;;;3.75;2.15;;;;;;;22.42;26.40;99770.72;5054784;28;20098;-53
2022/04/29 10:12:25;;;;;;;4.90;2.70;;;;;;;22.48;25.75;99763.91;5054476;28;20048;-54
2022/04/29 10:15:21;;;;;;;5.05;2.22;;;;;;;20.45;28.73;99778.28;5054992;28;20049;-53
2022/04/29 10:21:38;;;;;;;5.80;2.40;;;;;;;20.15;29.34;99773.88;5056099;28;20037;-53
2022/04/29 10:24:24;;;;;;;3.70;2.00;;;;;;;22.45;26.36;99764.22;5055912;28;20087;-55
2022/04/29 10:27:10;;;;;;;2.67;2.03;;;;;;;23.03;25.42;99761.00;5055369;28;20306;-53
2022/04/29 10:29:55;;;;;;;4.05;2.10;;;;;;;22.73;24.60;99754.22;5054872;28;20072;-58
2022/04/29 10:33:01;;;;;;;6.55;2.45;;;;;;;22.61;24.91;99761.69;5083077;28;20041;-54
2022/04/29 10:35:47;;;;;;;4.55;2.40;;;;;;;21.37;26.07;99753.56;5083024;28;20041;-55
2022/04/29 10:38:39;;;;;;;4.75;2.50;;;;;;;22.28;26.04;99750.78;5054440;28;20103;-55
2022/04/29 10:41:25;;;;;;;4.80;2.10;;;;;;;24.12;24.27;99754.72;5054345;28;20044;-55
2022/04/29 10:44:10;;;;;;;4.75;2.42;;;;;;;22.46;25.33;99750.72;5054506;28;20068;-54
2022/04/29 10:46:54;;;;;;;5.43;2.58;;;;;;;22.38;25.69;99750.66;5042607;28;20101;-56
2022/04/29 10:50:36;;;;;;;5.47;2.55;;;;;;;22.56;24.91;99733.75;5054503;28;20102;-55
2022/04/29 10:53:41;;;;;;;4.40;2.20;;;;;;;22.06;25.51;99721.00;5055086;28;20037;-53
2022/04/29 10:56:36;;;;;;;3.78;2.30;;;;;;;22.94;24.32;99715.56;5067895;28;20041;-53
2022/04/29 10:59:23;;;;;;;4.90;2.58;;;;;;;22.51;24.73;99705.69;5054985;28;20033;-55
2022/04/29 11:02:13;;;;;;;4.45;2.20;;;;;;;23.23;24.16;99722.28;5053529;28;20064;-54
2022/04/29 11:04:59;;;;;;;4.20;2.28;;;;;;;22.22;24.66;99722.91;5054688;28;20108;-53
2022/04/29 11:07:46;;;;;;;4.85;1.80;;;;;;;22.57;24.52;99709.56;5053334;28;20494;-55
2022/04/29 11:10:59;;;;;;;3.67;1.88;;;;;;;23.58;23.66;99721.34;5067960;28;20055;-54
2022/04/29 11:13:48;;;;;;;4.80;2.00;;;;;;;23.13;23.54;99709.06;5068564;28;20037;-53
2022/04/29 11:16:56;;;;;;;3.28;2.03;;;;;;;24.30;22.66;99703.66;5054757;28;20040;-54
2022/04/29 11:20:15;;;;;;;4.35;2.30;;;;;;;25.17;21.82;99700.22;5054996;28;20037;-55
2022/04/29 11:26:10;;;;;;;3.42;1.95;;;;;;;23.95;22.68;99711.94;5057763;28;20044;-55
2022/04/29 11:29:00;;;;;;;4.93;2.20;;;;;;;23.93;22.64;99708.59;5068519;28;20106;-54
2022/04/29 11:32:23;;;;;;;2.67;1.80;;;;;;;24.27;22.94;99695.97;5023236;28;20045;-54
2022/04/29 11:35:08;;;;;;;9.40;2.65;;;;;;;24.88;22.19;99683.81;5054580;28;20076;-55
2022/04/29 11:37:53;;;;;;;6.93;2.35;;;;;;;24.35;21.84;99673.72;5039730;28;20041;-54
2022/04/29 11:40:39;;;;;;;6.80;2.00;;;;;;;22.96;23.23;99678.00;5053430;28;20037;-54
2022/04/29 11:43:24;;;;;;;3.78;1.33;;;;;;;23.23;22.85;99678.69;5066763;28;20037;-55
2022/04/29 11:46:10;;;;;;;3.53;1.50;;;;;;;23.44;21.64;99669.34;5053199;28;20036;-55
2022/04/29 11:49:00;;;;;;;3.92;1.95;;;;;;;22.57;22.93;99672.19;5053165;28;20032;-55
2022/04/29 11:51:45;;;;;;;3.47;1.48;;;;;;;23.21;23.15;99665.50;5054382;28;20523;-55
2022/04/29 11:54:29;;;;;;;2.40;1.70;;;;;;;23.25;22.21;99666.00;5054130;28;20036;-55
2022/04/29 11:57:15;;;;;;;3.28;1.55;;;;;;;24.34;21.91;99647.94;5039247;28;20099;-56
2022/04/29 12:00:02;;;;;;;3.17;1.45;;;;;;;23.56;22.58;99664.50;5053415;28;20407;-51
2022/04/29 12:02:59;;;;;;;2.20;1.40;;;;;;;24.46;21.88;99653.75;5054314;28;20095;-56
2022/04/29 12:05:44;;;;;;;7.95;1.90;;;;;;;23.38;22.20;99658.31;5053023;28;20041;-53
2022/04/29 12:08:39;;;;;;;4.25;1.80;;;;;;;23.35;21.95;99657.81;5053832;28;20128;-54
2022/04/29 12:11:37;;;;;;;5.32;2.00;;;;;;;24.99;21.27;99646.97;5053776;28;20041;-55
2022/04/29 12:14:23;;;;;;;5.50;1.83;;;;;;;23.61;21.76;99643.47;5052622;28;20072;-55
2022/04/29 12:17:09;;;;;;;3.72;1.65;;;;;;;23.22;22.26;99637.78;5054341;28;20049;-55
2022/04/29 12:19:58;;;;;;;4.38;1.83;;;;;;;23.61;22.29;99635.44;5039776;28;20045;-54
2022/04/29 12:22:43;;;;;;;2.40;1.48;;;;;;;25.44;21.33;99622.97;5051683;28;20041;-50
2022/04/29 12:25:30;;;;;;;2.33;1.52;;;;;;;24.35;21.61;99628.22;5054818;28;20083;-56
2022/04/29 12:28:16;;;;;;;4.30;1.55;;;;;;;24.75;21.31;99625.47;5053639;28;20045;-56
2022/04/29 12:37:19;;;;;;;3.90;1.53;;;;;;;24.75;20.79;99624.63;5066491;28;20084;-56
2022/04/29 12:40:13;;;;;;;3.42;1.48;;;;;;;24.11;21.28;99616.56;5053131;28;20041;-56
2022/04/29 12:43:13;;;;;;;2.97;1.23;;;;;;;23.94;21.61;99618.47;5066143;28;20048;-57
2022/04/29 12:46:12;;;;;;;4.88;1.20;;;;;;;24.22;22.14;99602.84;5037767;28;20083;-54
2022/04/29 12:48:57;;;;;;;2.92;1.48;;;;;;;21.85;23.72;99601.34;5055555;28;20048;-56
2022/04/29 12:51:42;;;;;;;3.38;1.52;;;;;;;21.46;24.14;99603.41;5080075;28;20048;-56
2022/04/29 12:54:27;;;;;;;3.47;1.50;;;;;;;21.22;25.20;99612.91;5051848;28;20041;-55
2022/04/29 12:57:12;;;;;;;4.55;1.90;;;;;;;21.01;25.69;99606.06;5052828;28;20068;-54
2022/04/29 13:00:00;;;;;;;3.15;1.70;;;;;;;22.03;24.64;99595.94;5048759;28;20044;-55
2022/04/29 13:02:45;;;;;;;3.55;1.85;;;;;;;22.03;24.20;99596.75;5050687;28;20037;-55
2022/04/29 13:05:32;;;;;;;4.70;2.20;;;;;;;21.95;24.14;99602.06;5037525;28;20033;-55
2022/04/29 13:08:18;;;;;;;3.85;1.85;;;;;;;22.60;23.59;99589.16;5052871;28;20443;-55
2022/04/29 13:11:06;;;;;;;3.08;1.55;;;;;;;22.91;23.69;99589.50;5052690;28;20037;-56
2022/04/29 13:13:53;;;;;;;4.10;1.98;;;;;;;23.08;23.22;99587.66;5038230;28;20044;-55
2022/04/29 13:16:40;;;;;;;5.43;2.00;;;;;;;22.53;23.10;99585.41;5051308;28;20041;-57
2022/04/29 13:19:24;;;;;;;4.70;1.90;;;;;;;21.92;24.23;99573.03;5052466;28;20029;-54
2022/04/29 13:22:11;;;;;;;4.53;1.98;;;;;;;21.03;25.20;99585.47;5032937;28;20079;-58
2022/04/29 13:24:59;;;;;;;3.50;1.73;;;;;;;22.34;23.50;99573.22;5060881;28;20341;-53
2022/04/29 13:27:43;;;;;;;4.07;1.75;;;;;;;23.66;23.30;99579.63;5065470;28;20048;-57
2022/04/29 13:30:29;;;;;;;2.22;1.80;;;;;;;23.19;23.56;99573.16;5051783;28;20059;-55
2022/04/29 13:33:14;;;;;;;4.32;2.20;;;;;;;23.00;23.79;99567.97;5052184;28;20037;-56
2022/04/29 13:36:02;;;;;;;4.68;2.03;;;;;;;23.36;23.43;99564.09;5051408;28;20044;-55
2022/04/29 13:38:48;;;;;;;5.22;2.72;;;;;;;22.68;24.48;99563.44;5051498;28;20124;-54
2022/04/29 13:41:34;;;;;;;6.13;1.98;;;;;;;23.58;23.21;99553.75;5036725;28;20041;-56
2022/04/29 13:44:19;;;;;;;7.68;2.05;;;;;;;23.49;23.72;99558.25;5050754;28;20037;-55
2022/04/29 13:47:04;;;;;;;3.28;2.15;;;;;;;22.49;23.87;99555.53;5064365;28;20451;-58
2022/04/29 13:49:49;;;;;;;2.97;1.90;;;;;;;22.80;23.88;99555.97;5064426;28;20029;-54
2022/04/29 13:55:46;;;;;;;4.13;1.95;;;;;;;23.03;23.08;99541.94;5052399;28;20064;-54
2022/04/29 13:58:31;;;;;;;2.53;1.90;;;;;;;22.56;23.94;99545.06;5051111;28;20053;-54
2022/04/29 14:01:16;;;;;;;7.40;1.85;;;;;;;23.03;23.70;99541.94;5050861;28;20036;-60
2022/04/29 14:04:01;;;;;;;3.53;1.90;;;;;;;22.94;23.61;99549.94;5052398;28;20040;-53
2022/04/29 14:06:46;;;;;;;3.60;2.28;;;;;;;22.81;23.30;99542.44;5052238;28;20076;-56